Time;durP1;ratioP1;P1;durP2;ratioP2;P2;SDS_P1;SDS_P2;PMS_P1;PMS_P2;Temp;Humidity;BMP_temperature;BMP_pressure;BME280_temperature;BME280_humidity;BME280_pressure;Samples;Min_cycle;Max_cycle;Signal;HPM_P1;HPM_P2
2023/12/27 00:01:37;;;;;;;13.90;8.03;;;;;;;;;;4981960;28;20275;-68
2023/12/27 00:04:02;;;;;;;14.90;9.47;;;;;;;;;;4982752;28;20361;-67
2023/12/27 00:06:27;;;;;;;12.60;8.30;;;;;;;;;;4979863;28;20562;-68
2023/12/27 00:08:53;;;;;;;14.67;8.60;;;;;;;;;;4983001;28;20271;-69
2023/12/27 00:11:18;;;;;;;22.10;9.63;;;;;;;;;;4973899;28;20203;-69
2023/12/27 00:13:43;;;;;;;17.60;8.90;;;;;;;;;;4979340;28;20215;-66
2023/12/27 00:16:09;;;;;;;22.77;11.80;;;;;;;;;;4981328;28;20191;-68
2023/12/27 00:18:34;;;;;;;19.27;10.30;;;;;;;;;;4983245;28;20215;-68
2023/12/27 00:21:00;;;;;;;17.20;9.33;;;;;;;;;;4966093;28;20576;-68
2023/12/27 00:23:26;;;;;;;15.53;9.37;;;;;;;;;;4975753;28;20230;-68
2023/12/27 00:25:51;;;;;;;17.33;9.67;;;;;;;;;;4987950;28;20184;-67
2023/12/27 00:28:16;;;;;;;16.13;8.90;;;;;;;;;;4989037;28;20678;-68
2023/12/27 00:30:41;;;;;;;13.93;8.77;;;;;;;;;;4981351;28;20286;-68
2023/12/27 00:33:07;;;;;;;12.70;9.20;;;;;;;;;;4982485;28;20192;-67
2023/12/27 00:35:32;;;;;;;15.93;9.00;;;;;;;;;;4978588;28;20648;-68
2023/12/27 00:37:57;;;;;;;17.87;10.33;;;;;;;;;;4972223;28;20210;-67
2023/12/27 00:40:22;;;;;;;18.87;10.47;;;;;;;;;;4975161;28;20287;-68
2023/12/27 00:42:48;;;;;;;17.67;9.47;;;;;;;;;;4976850;28;20231;-67
2023/12/27 00:45:14;;;;;;;17.00;9.37;;;;;;;;;;4975288;28;22117;-66
2023/12/27 00:47:39;;;;;;;22.27;11.17;;;;;;;;;;4986602;28;20180;-68
2023/12/27 00:50:04;;;;;;;24.23;11.93;;;;;;;;;;4975809;28;20214;-68
2023/12/27 00:52:29;;;;;;;23.60;10.63;;;;;;;;;;4988253;28;20200;-68
2023/12/27 00:54:55;;;;;;;18.20;10.33;;;;;;;;;;4990157;28;20176;-68
2023/12/27 00:57:20;;;;;;;18.37;10.23;;;;;;;;;;4986321;28;20770;-69
2023/12/27 00:59:46;;;;;;;20.40;11.27;;;;;;;;;;4991331;28;20233;-68
2023/12/27 01:02:11;;;;;;;16.13;10.80;;;;;;;;;;4981520;28;20192;-69
2023/12/27 01:04:36;;;;;;;17.47;10.77;;;;;;;;;;4986172;28;20730;-69
2023/12/27 01:07:01;;;;;;;19.97;11.10;;;;;;;;;;4985516;28;20192;-69
2023/12/27 01:09:27;;;;;;;16.57;10.50;;;;;;;;;;4985755;28;20187;-69
2023/12/27 01:11:52;;;;;;;25.00;11.60;;;;;;;;;;4984911;28;20207;-67
2023/12/27 01:14:19;;;;;;;16.03;10.40;;;;;;;;;;4983716;28;20232;-68
2023/12/27 01:16:44;;;;;;;23.37;11.40;;;;;;;;;;4984497;28;20222;-68
2023/12/27 01:19:10;;;;;;;17.13;11.27;;;;;;;;;;4985876;28;20199;-68
2023/12/27 01:21:35;;;;;;;17.53;10.43;;;;;;;;;;4985420;28;20191;-69
2023/12/27 01:24:00;;;;;;;18.80;11.70;;;;;;;;;;4985214;28;20290;-68
2023/12/27 01:26:25;;;;;;;22.30;11.03;;;;;;;;;;4990374;28;20570;-69
2023/12/27 01:28:51;;;;;;;19.27;10.23;;;;;;;;;;4989864;28;20183;-68
2023/12/27 01:31:16;;;;;;;18.23;10.63;;;;;;;;;;4977981;28;20200;-69
2023/12/27 01:33:41;;;;;;;20.63;11.17;;;;;;;;;;4984054;28;20207;-67
2023/12/27 01:36:07;;;;;;;16.77;10.03;;;;;;;;;;4991459;28;20620;-68
2023/12/27 01:38:32;;;;;;;19.67;11.23;;;;;;;;;;4991892;28;20190;-68
2023/12/27 01:40:57;;;;;;;20.37;10.80;;;;;;;;;;4993630;28;20179;-70
2023/12/27 01:43:22;;;;;;;24.40;11.47;;;;;;;;;;4993561;28;20663;-68
2023/12/27 01:45:49;;;;;;;22.23;12.57;;;;;;;;;;4993423;28;20184;-68
2023/12/27 01:48:14;;;;;;;18.10;11.07;;;;;;;;;;4993491;28;20175;-68
2023/12/27 01:50:40;;;;;;;28.97;12.30;;;;;;;;;;4990259;28;20714;-68
2023/12/27 01:53:05;;;;;;;25.03;11.70;;;;;;;;;;4989656;28;20195;-69
2023/12/27 01:55:30;;;;;;;22.90;11.73;;;;;;;;;;4990920;28;20643;-67
2023/12/27 01:57:55;;;;;;;16.90;10.37;;;;;;;;;;4993126;28;20190;-68
2023/12/27 02:00:21;;;;;;;16.30;10.80;;;;;;;;;;5001241;28;20187;-67
2023/12/27 02:02:46;;;;;;;26.10;14.13;;;;;;;;;;4991736;28;20294;-67
2023/12/27 02:05:11;;;;;;;18.67;11.40;;;;;;;;;;4988358;28;20560;-67
2023/12/27 02:07:37;;;;;;;20.17;11.40;;;;;;;;;;4991675;28;20263;-68
2023/12/27 02:10:02;;;;;;;20.37;12.47;;;;;;;;;;4992790;28;20283;-68
2023/12/27 02:12:29;;;;;;;27.70;13.17;;;;;;;;;;4990123;28;20215;-68
2023/12/27 02:14:55;;;;;;;21.13;11.93;;;;;;;;;;4992162;28;20187;-68
2023/12/27 02:17:20;;;;;;;25.77;12.30;;;;;;;;;;4991136;28;20184;-68
2023/12/27 02:19:46;;;;;;;18.60;10.83;;;;;;;;;;4982195;28;20656;-67
2023/12/27 02:22:13;;;;;;;25.67;12.37;;;;;;;;;;4983777;28;20701;-69
2023/12/27 02:24:39;;;;;;;21.90;10.80;;;;;;;;;;4990607;28;20242;-68
2023/12/27 02:27:04;;;;;;;23.70;12.03;;;;;;;;;;4989176;28;20659;-67
2023/12/27 02:29:29;;;;;;;15.03;10.90;;;;;;;;;;4987561;28;20183;-67
2023/12/27 02:31:54;;;;;;;20.50;11.80;;;;;;;;;;4988786;28;20583;-66
2023/12/27 02:34:20;;;;;;;21.80;11.47;;;;;;;;;;4986544;28;20230;-68
2023/12/27 02:36:45;;;;;;;17.50;10.17;;;;;;;;;;4990650;28;20191;-67
2023/12/27 02:39:10;;;;;;;18.27;11.00;;;;;;;;;;4990173;28;20171;-67
2023/12/27 02:41:35;;;;;;;19.00;11.97;;;;;;;;;;4989683;28;20180;-68
2023/12/27 02:44:01;;;;;;;19.13;10.63;;;;;;;;;;4991342;28;20208;-67
2023/12/27 02:46:30;;;;;;;22.43;11.63;;;;;;;;;;4991034;28;20186;-67
2023/12/27 02:48:55;;;;;;;22.93;11.77;;;;;;;;;;4988824;28;20565;-68
2023/12/27 02:51:21;;;;;;;18.50;11.30;;;;;;;;;;4986774;28;20200;-68
2023/12/27 02:53:46;;;;;;;22.03;11.47;;;;;;;;;;4987888;28;20208;-68
2023/12/27 02:56:11;;;;;;;23.97;12.33;;;;;;;;;;4989645;28;20267;-69
2023/12/27 02:58:37;;;;;;;26.90;12.63;;;;;;;;;;4989915;28;20648;-69
2023/12/27 03:01:03;;;;;;;21.83;11.57;;;;;;;;;;4986748;28;20188;-68
2023/12/27 03:03:28;;;;;;;23.97;11.70;;;;;;;;;;4981057;28;20208;-68
2023/12/27 03:05:53;;;;;;;24.13;11.27;;;;;;;;;;4991296;28;20190;-68
2023/12/27 03:08:19;;;;;;;20.97;11.57;;;;;;;;;;4991092;28;20180;-69
2023/12/27 03:10:44;;;;;;;20.90;12.07;;;;;;;;;;4989298;28;20238;-70
2023/12/27 03:13:09;;;;;;;19.27;12.17;;;;;;;;;;4991235;28;20195;-68
2023/12/27 03:15:34;;;;;;;21.07;11.70;;;;;;;;;;4990832;28;20275;-68
2023/12/27 03:17:59;;;;;;;18.80;10.87;;;;;;;;;;4986336;28;20546;-69
2023/12/27 03:20:25;;;;;;;25.50;12.20;;;;;;;;;;4980236;28;20172;-67
2023/12/27 03:22:50;;;;;;;20.07;11.90;;;;;;;;;;4989681;28;20202;-68
2023/12/27 03:25:15;;;;;;;26.60;12.87;;;;;;;;;;4989689;28;20195;-67
2023/12/27 03:27:40;;;;;;;20.17;11.87;;;;;;;;;;4989820;28;20739;-68
2023/12/27 03:30:06;;;;;;;25.40;11.93;;;;;;;;;;4988685;28;20192;-68
2023/12/27 03:32:31;;;;;;;21.77;11.47;;;;;;;;;;4987047;28;20215;-68
2023/12/27 03:34:56;;;;;;;20.37;10.80;;;;;;;;;;4990333;28;20176;-68
2023/12/27 03:37:22;;;;;;;21.87;11.67;;;;;;;;;;4980658;28;20198;-68
2023/12/27 03:39:50;;;;;;;20.87;11.57;;;;;;;;;;4984297;28;20579;-68
2023/12/27 03:42:19;;;;;;;21.70;11.53;;;;;;;;;;4985410;28;20733;-67
2023/12/27 03:44:44;;;;;;;24.03;11.10;;;;;;;;;;4987851;28;20672;-67
2023/12/27 03:47:09;;;;;;;29.20;12.93;;;;;;;;;;4990354;28;20262;-68
2023/12/27 03:49:34;;;;;;;22.60;11.93;;;;;;;;;;4988442;28;20194;-68
2023/12/27 03:52:00;;;;;;;19.97;12.37;;;;;;;;;;4989673;28;22126;-67
2023/12/27 03:54:25;;;;;;;21.03;12.80;;;;;;;;;;4988138;28;20225;-68
2023/12/27 03:56:50;;;;;;;22.97;11.73;;;;;;;;;;4988186;28;20184;-67
2023/12/27 03:59:15;;;;;;;27.53;12.37;;;;;;;;;;4984058;28;20582;-66
2023/12/27 04:01:40;;;;;;;21.60;11.73;;;;;;;;;;4988857;28;20195;-68
2023/12/27 04:04:07;;;;;;;22.40;11.93;;;;;;;;;;4983843;28;20215;-66
2023/12/27 04:06:32;;;;;;;29.30;11.70;;;;;;;;;;4988741;28;20183;-69
2023/12/27 04:08:57;;;;;;;24.07;12.63;;;;;;;;;;4987430;28;20678;-67
2023/12/27 04:11:22;;;;;;;19.50;11.23;;;;;;;;;;4989993;28;20199;-69
2023/12/27 04:13:48;;;;;;;29.40;13.30;;;;;;;;;;4988913;28;20199;-67
2023/12/27 04:16:13;;;;;;;26.60;12.67;;;;;;;;;;4989620;28;20654;-68
2023/12/27 04:18:38;;;;;;;26.03;14.23;;;;;;;;;;5004528;28;20179;-68
2023/12/27 04:21:03;;;;;;;24.73;12.20;;;;;;;;;;4990230;28;20206;-69
2023/12/27 04:23:29;;;;;;;26.40;11.97;;;;;;;;;;4987383;28;20203;-69
2023/12/27 04:25:54;;;;;;;26.07;11.97;;;;;;;;;;4983024;28;20874;-68
2023/12/27 04:28:19;;;;;;;25.63;11.50;;;;;;;;;;4989381;28;20177;-68
2023/12/27 04:30:45;;;;;;;22.43;11.60;;;;;;;;;;4985276;28;20214;-67
2023/12/27 04:33:10;;;;;;;25.43;12.33;;;;;;;;;;4989384;28;20203;-68
2023/12/27 04:35:35;;;;;;;20.43;10.97;;;;;;;;;;4988762;28;20180;-68
2023/12/27 04:38:00;;;;;;;21.37;12.40;;;;;;;;;;4990081;28;20180;-68
2023/12/27 04:40:25;;;;;;;27.40;12.43;;;;;;;;;;4988979;28;20179;-67
2023/12/27 04:42:51;;;;;;;24.97;11.80;;;;;;;;;;4984984;28;20659;-69
2023/12/27 04:45:17;;;;;;;25.33;11.87;;;;;;;;;;4981261;28;20230;-68
2023/12/27 04:47:42;;;;;;;27.47;11.93;;;;;;;;;;4987898;28;20172;-71
2023/12/27 04:50:07;;;;;;;30.20;11.73;;;;;;;;;;4989331;28;20562;-68
2023/12/27 04:52:33;;;;;;;23.53;11.10;;;;;;;;;;4986351;28;20218;-68
2023/12/27 04:54:58;;;;;;;20.73;11.47;;;;;;;;;;4989806;28;20706;-67
2023/12/27 04:57:23;;;;;;;21.33;10.47;;;;;;;;;;4988613;28;20203;-68
2023/12/27 04:59:48;;;;;;;20.70;11.17;;;;;;;;;;4992290;28;20179;-68
2023/12/27 05:02:13;;;;;;;24.33;11.00;;;;;;;;;;4986788;28;20255;-69
2023/12/27 05:04:39;;;;;;;25.33;10.90;;;;;;;;;;4983861;28;20203;-67
2023/12/27 05:07:04;;;;;;;25.87;11.57;;;;;;;;;;4991414;28;20180;-68
2023/12/27 05:09:29;;;;;;;21.70;10.17;;;;;;;;;;4993599;28;20211;-69
2023/12/27 05:11:54;;;;;;;23.93;10.70;;;;;;;;;;4987777;28;20207;-68
2023/12/27 05:14:20;;;;;;;18.33;10.67;;;;;;;;;;4987379;28;20168;-68
2023/12/27 05:16:48;;;;;;;23.97;10.60;;;;;;;;;;4987360;28;20184;-68
2023/12/27 05:19:13;;;;;;;22.43;10.50;;;;;;;;;;4989949;28;20246;-68
2023/12/27 05:21:38;;;;;;;18.10;8.23;;;;;;;;;;4989216;28;20605;-68
2023/12/27 05:24:04;;;;;;;22.13;9.50;;;;;;;;;;4986884;28;20249;-67
2023/12/27 05:26:29;;;;;;;24.90;10.90;;;;;;;;;;4992028;28;20199;-68
2023/12/27 05:28:54;;;;;;;17.53;8.90;;;;;;;;;;4989201;28;20203;-67
2023/12/27 05:31:19;;;;;;;27.70;10.20;;;;;;;;;;4987926;28;20238;-68
2023/12/27 05:33:44;;;;;;;17.77;9.13;;;;;;;;;;4989538;28;20195;-67
2023/12/27 05:36:10;;;;;;;22.13;9.23;;;;;;;;;;4986770;28;20203;-68
2023/12/27 05:38:35;;;;;;;19.60;9.03;;;;;;;;;;4991543;28;20226;-68
2023/12/27 05:41:00;;;;;;;22.27;9.63;;;;;;;;;;4990897;28;20184;-67
2023/12/27 05:43:26;;;;;;;17.17;7.97;;;;;;;;;;4992442;28;20667;-68
2023/12/27 05:45:51;;;;;;;14.17;8.00;;;;;;;;;;4991780;28;20179;-69
2023/12/27 05:48:17;;;;;;;18.07;8.30;;;;;;;;;;4990278;28;20597;-69
2023/12/27 05:50:42;;;;;;;20.50;8.60;;;;;;;;;;4990972;28;20199;-68
2023/12/27 05:53:09;;;;;;;26.03;9.27;;;;;;;;;;4991809;28;20675;-68
2023/12/27 05:55:35;;;;;;;20.87;9.10;;;;;;;;;;4988218;28;20282;-67
2023/12/27 05:58:00;;;;;;;17.17;8.43;;;;;;;;;;4986701;28;20613;-68
2023/12/27 06:00:25;;;;;;;19.90;8.70;;;;;;;;;;4991639;28;20182;-68
2023/12/27 06:02:50;;;;;;;16.53;8.50;;;;;;;;;;4980205;28;20200;-68
2023/12/27 06:05:15;;;;;;;18.13;8.37;;;;;;;;;;4988537;28;20242;-66
2023/12/27 06:07:40;;;;;;;19.33;8.50;;;;;;;;;;4987431;28;20183;-68
2023/12/27 06:10:06;;;;;;;23.43;8.90;;;;;;;;;;4990679;28;20179;-67
2023/12/27 06:12:31;;;;;;;29.17;9.70;;;;;;;;;;4986345;28;20208;-68
2023/12/27 06:14:57;;;;;;;14.70;7.90;;;;;;;;;;4992028;28;20670;-68
2023/12/27 06:17:22;;;;;;;14.93;8.43;;;;;;;;;;4989299;28;20222;-66
2023/12/27 06:19:47;;;;;;;18.47;7.47;;;;;;;;;;4990925;28;20632;-68
2023/12/27 06:22:12;;;;;;;22.97;7.80;;;;;;;;;;4991730;28;20203;-67
2023/12/27 06:24:38;;;;;;;19.47;8.43;;;;;;;;;;4986837;28;20185;-68
2023/12/27 06:27:06;;;;;;;14.43;7.93;;;;;;;;;;4987625;28;20192;-67
2023/12/27 06:29:31;;;;;;;23.20;7.50;;;;;;;;;;4985295;28;20180;-67
2023/12/27 06:31:56;;;;;;;21.70;8.90;;;;;;;;;;4991541;28;20203;-68
2023/12/27 06:34:22;;;;;;;13.60;7.83;;;;;;;;;;4990392;28;20640;-67
2023/12/27 06:36:48;;;;;;;23.93;9.03;;;;;;;;;;4990643;28;20191;-67
2023/12/27 06:39:13;;;;;;;15.27;7.90;;;;;;;;;;4987703;28;20198;-67
2023/12/27 06:41:38;;;;;;;14.43;7.73;;;;;;;;;;4984581;28;20180;-68
2023/12/27 06:44:03;;;;;;;17.07;8.43;;;;;;;;;;4980935;28;20199;-68
2023/12/27 06:46:29;;;;;;;23.43;8.13;;;;;;;;;;4983364;28;20183;-68
2023/12/27 06:48:54;;;;;;;19.83;7.17;;;;;;;;;;4982561;28;20598;-68
2023/12/27 06:51:19;;;;;;;17.03;7.77;;;;;;;;;;4984065;28;20362;-68
2023/12/27 06:53:44;;;;;;;17.03;8.03;;;;;;;;;;4983177;28;20202;-68
2023/12/27 06:56:10;;;;;;;15.27;7.37;;;;;;;;;;4986206;28;20185;-68
2023/12/27 06:58:35;;;;;;;20.27;8.77;;;;;;;;;;4986490;28;20202;-68
2023/12/27 07:01:01;;;;;;;15.27;7.47;;;;;;;;;;4985767;28;20180;-69
2023/12/27 07:03:26;;;;;;;16.13;8.47;;;;;;;;;;4986348;28;20207;-68
2023/12/27 07:05:51;;;;;;;13.57;6.97;;;;;;;;;;4988043;28;20556;-69
2023/12/27 07:08:16;;;;;;;15.63;6.77;;;;;;;;;;4990074;28;20178;-69
2023/12/27 07:10:42;;;;;;;22.27;7.43;;;;;;;;;;4988983;28;20211;-68
2023/12/27 07:13:08;;;;;;;15.80;7.90;;;;;;;;;;4989964;28;20218;-68
2023/12/27 07:15:33;;;;;;;17.90;7.17;;;;;;;;;;4984943;28;20188;-68
2023/12/27 07:17:59;;;;;;;17.13;7.07;;;;;;;;;;4989230;28;20195;-68
2023/12/27 07:20:24;;;;;;;15.23;7.13;;;;;;;;;;4982131;28;20215;-68
2023/12/27 07:22:49;;;;;;;22.90;8.27;;;;;;;;;;4984481;28;20203;-69
2023/12/27 07:25:14;;;;;;;13.47;7.40;;;;;;;;;;4988564;28;20168;-68
2023/12/27 07:27:40;;;;;;;20.53;7.30;;;;;;;;;;4984161;28;20195;-69
2023/12/27 07:30:06;;;;;;;20.30;7.83;;;;;;;;;;4988710;28;20237;-69
2023/12/27 07:32:31;;;;;;;23.50;7.60;;;;;;;;;;5001511;28;20258;-69
2023/12/27 07:34:57;;;;;;;14.50;7.53;;;;;;;;;;4988966;28;20171;-69
2023/12/27 07:37:25;;;;;;;16.83;7.23;;;;;;;;;;4983612;28;20179;-68
2023/12/27 07:39:50;;;;;;;16.87;8.43;;;;;;;;;;4983075;28;20762;-68
2023/12/27 07:42:16;;;;;;;14.70;6.93;;;;;;;;;;4985685;28;20298;-68
2023/12/27 07:44:41;;;;;;;13.67;8.00;;;;;;;;;;4988688;28;20175;-68
2023/12/27 07:47:07;;;;;;;10.00;7.60;;;;;;;;;;4983665;28;20270;-69
2023/12/27 07:49:32;;;;;;;12.90;6.83;;;;;;;;;;4973391;28;20180;-69
2023/12/27 07:51:57;;;;;;;14.00;7.30;;;;;;;;;;4986718;28;20207;-69
2023/12/27 07:54:22;;;;;;;13.83;7.47;;;;;;;;;;4986915;28;20648;-69
2023/12/27 07:56:47;;;;;;;13.43;6.73;;;;;;;;;;4983599;28;20176;-67
2023/12/27 07:59:13;;;;;;;11.23;6.67;;;;;;;;;;4986502;28;20175;-68
2023/12/27 08:01:38;;;;;;;11.03;6.60;;;;;;;;;;4984660;28;20183;-70
2023/12/27 08:04:03;;;;;;;15.17;6.80;;;;;;;;;;4983738;28;20697;-70
2023/12/27 08:06:28;;;;;;;9.83;6.77;;;;;;;;;;4985412;28;20667;-69
2023/12/27 08:08:55;;;;;;;9.27;6.53;;;;;;;;;;4986481;28;20187;-70
2023/12/27 08:11:21;;;;;;;10.47;7.37;;;;;;;;;;4986136;28;20281;-69
2023/12/27 08:13:46;;;;;;;13.37;6.47;;;;;;;;;;4989806;28;20203;-68
2023/12/27 08:16:11;;;;;;;11.27;6.67;;;;;;;;;;4987520;28;20259;-68
2023/12/27 08:18:36;;;;;;;10.93;6.23;;;;;;;;;;4990078;28;20179;-69
2023/12/27 08:21:02;;;;;;;8.03;6.70;;;;;;;;;;4989431;28;20187;-68
2023/12/27 08:23:27;;;;;;;10.27;6.00;;;;;;;;;;4993161;28;20324;-68
2023/12/27 08:25:52;;;;;;;11.33;6.40;;;;;;;;;;4988157;28;20190;-69
2023/12/27 08:28:17;;;;;;;7.77;6.40;;;;;;;;;;4986166;28;20183;-68
2023/12/27 08:30:44;;;;;;;8.97;6.73;;;;;;;;;;4987113;28;20763;-69
2023/12/27 08:33:09;;;;;;;11.17;6.10;;;;;;;;;;4987149;28;20286;-68
2023/12/27 08:35:34;;;;;;;9.03;6.63;;;;;;;;;;4989031;28;20262;-68
2023/12/27 08:37:59;;;;;;;8.80;6.30;;;;;;;;;;4987717;28;20552;-68
2023/12/27 08:40:25;;;;;;;13.10;6.83;;;;;;;;;;4984754;28;20171;-69
2023/12/27 08:42:50;;;;;;;10.03;6.10;;;;;;;;;;5000371;28;20203;-69
2023/12/27 08:45:15;;;;;;;12.27;6.90;;;;;;;;;;4987951;28;20194;-69
2023/12/27 08:47:41;;;;;;;10.80;7.33;;;;;;;;;;4988524;28;20557;-68
2023/12/27 08:50:06;;;;;;;8.70;6.33;;;;;;;;;;4989524;28;20671;-69
2023/12/27 08:52:32;;;;;;;8.63;6.47;;;;;;;;;;4985663;28;20523;-69
2023/12/27 08:54:58;;;;;;;8.57;6.23;;;;;;;;;;4987598;28;20188;-69
2023/12/27 08:57:23;;;;;;;9.87;6.83;;;;;;;;;;4986444;28;20168;-68
2023/12/27 08:59:48;;;;;;;10.70;6.93;;;;;;;;;;4986748;28;20647;-70
2023/12/27 09:02:13;;;;;;;10.77;7.57;;;;;;;;;;4991925;28;20216;-69
2023/12/27 09:04:39;;;;;;;9.43;7.83;;;;;;;;;;4988128;28;20255;-69
2023/12/27 09:07:04;;;;;;;10.73;7.53;;;;;;;;;;4986877;28;20258;-69
2023/12/27 09:09:30;;;;;;;10.20;7.17;;;;;;;;;;4984938;28;20180;-69
2023/12/27 09:11:56;;;;;;;13.13;8.10;;;;;;;;;;4985813;28;20203;-70
2023/12/27 09:14:21;;;;;;;13.00;8.17;;;;;;;;;;4985245;28;20314;-68
2023/12/27 09:16:46;;;;;;;11.63;7.73;;;;;;;;;;4986211;28;20198;-69
2023/12/27 09:19:12;;;;;;;15.77;8.23;;;;;;;;;;4983012;28;20569;-69
2023/12/27 09:21:43;;;;;;;10.47;8.37;;;;;;;;;;4986298;28;20195;-69
2023/12/27 09:24:09;;;;;;;12.93;9.23;;;;;;;;;;4985812;28;20258;-69
2023/12/27 09:26:34;;;;;;;15.23;8.73;;;;;;;;;;4986212;28;20188;-69
2023/12/27 09:28:59;;;;;;;13.53;8.77;;;;;;;;;;4984493;28;20254;-69
2023/12/27 09:31:29;;;;;;;13.23;9.20;;;;;;;;;;4985320;28;20208;-68
2023/12/27 09:33:55;;;;;;;13.97;8.83;;;;;;;;;;4971744;28;20778;-69
2023/12/27 09:36:20;;;;;;;12.93;9.03;;;;;;;;;;4978771;28;20184;-69
2023/12/27 09:38:46;;;;;;;13.63;9.00;;;;;;;;;;4984795;28;20172;-69
2023/12/27 09:41:11;;;;;;;16.40;9.17;;;;;;;;;;4985666;28;20175;-69
2023/12/27 09:43:37;;;;;;;15.00;9.67;;;;;;;;;;4985481;28;20265;-69
2023/12/27 09:46:03;;;;;;;13.33;9.20;;;;;;;;;;4986416;28;20188;-69
2023/12/27 09:48:28;;;;;;;16.63;9.53;;;;;;;;;;4985694;28;20703;-70
2023/12/27 09:50:54;;;;;;;13.43;9.13;;;;;;;;;;4981130;28;20207;-69
2023/12/27 09:53:19;;;;;;;14.70;10.23;;;;;;;;;;4982836;28;20196;-69
2023/12/27 09:55:45;;;;;;;15.30;9.00;;;;;;;;;;4984266;28;20699;-70
2023/12/27 09:58:11;;;;;;;15.50;10.47;;;;;;;;;;4984963;28;20180;-69
2023/12/27 10:00:37;;;;;;;13.30;9.23;;;;;;;;;;4985197;28;20187;-68
2023/12/27 10:03:04;;;;;;;18.77;9.73;;;;;;;;;;4984196;28;20235;-68
2023/12/27 10:05:49;;;;;;;15.37;10.30;;;;;;;;;;4989492;28;20178;-69
2023/12/27 10:08:15;;;;;;;13.97;9.40;;;;;;;;;;4988230;28;20274;-68
2023/12/27 10:10:40;;;;;;;18.90;9.00;;;;;;;;;;4980863;28;20282;-67
2023/12/27 10:13:07;;;;;;;13.67;9.00;;;;;;;;;;4985954;28;21152;-69
2023/12/27 10:15:33;;;;;;;11.60;8.50;;;;;;;;;;4985005;28;20603;-69
2023/12/27 10:17:58;;;;;;;13.27;9.17;;;;;;;;;;4989691;28;20222;-70
2023/12/27 10:20:29;;;;;;;13.53;9.20;;;;;;;;;;4991713;28;20188;-69
2023/12/27 10:22:54;;;;;;;12.00;9.23;;;;;;;;;;4992480;28;20639;-69
2023/12/27 10:25:20;;;;;;;11.20;7.87;;;;;;;;;;4985908;28;20270;-69
2023/12/27 10:27:45;;;;;;;10.10;7.60;;;;;;;;;;4982305;28;21772;-68
2023/12/27 10:30:13;;;;;;;12.07;8.13;;;;;;;;;;4983092;28;20196;-69
2023/12/27 10:32:39;;;;;;;10.33;7.13;;;;;;;;;;4983239;28;20215;-69
2023/12/27 10:35:04;;;;;;;12.63;8.33;;;;;;;;;;4983922;28;20196;-69
2023/12/27 10:37:30;;;;;;;10.67;7.43;;;;;;;;;;4984537;28;20267;-70
2023/12/27 10:39:56;;;;;;;16.63;7.70;;;;;;;;;;4984030;28;20194;-69
2023/12/27 10:42:27;;;;;;;11.60;7.37;;;;;;;;;;4986459;28;20290;-70
2023/12/27 10:44:53;;;;;;;14.77;7.13;;;;;;;;;;4982504;28;20679;-70
2023/12/27 10:47:18;;;;;;;9.60;6.97;;;;;;;;;;4992323;28;20271;-69
2023/12/27 10:49:47;;;;;;;9.00;6.30;;;;;;;;;;4982522;28;20274;-70
2023/12/27 10:52:15;;;;;;;8.90;5.80;;;;;;;;;;4987411;28;20394;-69
2023/12/27 10:54:43;;;;;;;10.63;6.57;;;;;;;;;;4989429;28;20188;-70
2023/12/27 10:57:11;;;;;;;6.77;5.33;;;;;;;;;;4986679;28;20190;-70
2023/12/27 10:59:37;;;;;;;9.73;6.27;;;;;;;;;;4989419;28;20184;-70
2023/12/27 11:02:02;;;;;;;9.47;5.60;;;;;;;;;;4990998;28;20660;-69
2023/12/27 11:04:28;;;;;;;8.30;5.90;;;;;;;;;;4990811;28;20263;-69
2023/12/27 11:06:54;;;;;;;12.43;5.93;;;;;;;;;;4990835;28;20187;-70
2023/12/27 11:09:23;;;;;;;7.77;5.20;;;;;;;;;;4984173;28;20732;-68
2023/12/27 11:11:49;;;;;;;6.93;4.63;;;;;;;;;;4985108;28;20203;-68
2023/12/27 11:14:14;;;;;;;7.90;5.30;;;;;;;;;;4988174;28;20294;-68
2023/12/27 11:16:40;;;;;;;7.03;4.33;;;;;;;;;;4991914;28;20237;-67
2023/12/27 11:19:06;;;;;;;7.53;5.17;;;;;;;;;;4990797;28;20202;-69
2023/12/27 11:21:35;;;;;;;9.07;4.13;;;;;;;;;;4991981;28;20180;-69
2023/12/27 11:24:02;;;;;;;5.97;4.30;;;;;;;;;;4990646;28;20206;-69
2023/12/27 11:26:27;;;;;;;5.00;3.47;;;;;;;;;;4985717;28;20192;-68
2023/12/27 11:28:52;;;;;;;4.43;3.87;;;;;;;;;;4988086;28;20183;-68
2023/12/27 11:31:19;;;;;;;4.87;3.63;;;;;;;;;;4990005;28;20238;-69
2023/12/27 11:33:45;;;;;;;5.63;4.10;;;;;;;;;;4991796;28;20286;-69
2023/12/27 11:36:10;;;;;;;6.97;4.23;;;;;;;;;;4991144;28;20198;-69
2023/12/27 11:38:36;;;;;;;4.73;3.33;;;;;;;;;;4991432;28;20172;-69
2023/12/27 11:41:02;;;;;;;8.30;4.03;;;;;;;;;;4990256;28;20191;-68
2023/12/27 11:43:47;;;;;;;4.80;3.67;;;;;;;;;;4988728;28;20238;-69
2023/12/27 11:46:13;;;;;;;5.23;4.10;;;;;;;;;;4983247;28;20187;-69
2023/12/27 11:48:38;;;;;;;5.57;3.63;;;;;;;;;;4990734;28;20721;-69
2023/12/27 11:51:22;;;;;;;5.63;4.03;;;;;;;;;;4991032;28;20211;-69
2023/12/27 11:53:47;;;;;;;9.13;3.83;;;;;;;;;;4990476;28;20195;-69
2023/12/27 11:56:12;;;;;;;7.27;3.77;;;;;;;;;;4990688;28;20198;-69
2023/12/27 11:58:39;;;;;;;6.37;4.67;;;;;;;;;;4990596;28;20180;-69
2023/12/27 12:01:20;;;;;;;6.83;3.70;;;;;;;;;;4990582;28;20215;-69
2023/12/27 12:03:49;;;;;;;5.30;3.93;;;;;;;;;;4976697;28;20254;-69
2023/12/27 12:06:26;;;;;;;5.60;3.73;;;;;;;;;;4991563;28;20219;-69
2023/12/27 12:08:52;;;;;;;6.47;3.90;;;;;;;;;;4980272;28;20187;-69
2023/12/27 12:11:17;;;;;;;5.83;3.50;;;;;;;;;;4990704;28;20644;-69
2023/12/27 12:13:43;;;;;;;7.07;3.80;;;;;;;;;;4991264;28;20199;-69
2023/12/27 12:16:08;;;;;;;4.47;3.30;;;;;;;;;;4989249;28;20186;-69
2023/12/27 12:18:34;;;;;;;5.37;3.57;;;;;;;;;;4990891;28;20278;-69
2023/12/27 12:21:00;;;;;;;3.87;2.73;;;;;;;;;;4990748;28;20210;-69
2023/12/27 12:23:28;;;;;;;6.73;3.53;;;;;;;;;;4988628;28;20298;-69
2023/12/27 12:25:55;;;;;;;5.03;3.20;;;;;;;;;;4990404;28;20290;-69
2023/12/27 12:28:21;;;;;;;7.27;3.77;;;;;;;;;;4991509;28;20274;-69
2023/12/27 12:30:46;;;;;;;5.57;3.80;;;;;;;;;;4987160;28;20222;-69
2023/12/27 12:33:11;;;;;;;4.03;3.60;;;;;;;;;;4984900;28;20198;-69
2023/12/27 12:35:38;;;;;;;7.40;4.37;;;;;;;;;;4987333;28;20582;-69
2023/12/27 12:38:04;;;;;;;8.63;4.67;;;;;;;;;;4994653;28;20655;-68
2023/12/27 12:40:29;;;;;;;9.87;4.10;;;;;;;;;;4993313;28;20238;-68
2023/12/27 12:42:55;;;;;;;5.57;3.73;;;;;;;;;;4994455;28;20214;-68
2023/12/27 12:45:20;;;;;;;6.33;4.20;;;;;;;;;;4993479;28;20191;-68
2023/12/27 12:47:45;;;;;;;8.60;4.03;;;;;;;;;;4993434;28;20184;-68
2023/12/27 12:50:12;;;;;;;5.90;3.57;;;;;;;;;;4993209;28;20194;-68
2023/12/27 12:52:37;;;;;;;8.23;3.90;;;;;;;;;;4989379;28;20724;-68
2023/12/27 12:55:02;;;;;;;11.10;4.37;;;;;;;;;;4992798;28;20176;-68
2023/12/27 12:57:31;;;;;;;6.63;4.90;;;;;;;;;;4993081;28;20179;-69
2023/12/27 12:59:56;;;;;;;6.77;4.17;;;;;;;;;;4993982;28;20674;-69
2023/12/27 13:02:21;;;;;;;9.10;4.30;;;;;;;;;;4996760;28;20203;-68
2023/12/27 13:04:50;;;;;;;6.50;4.00;;;;;;;;;;4994209;28;20195;-69
2023/12/27 13:07:15;;;;;;;7.03;3.77;;;;;;;;;;4993367;28;20191;-68
2023/12/27 13:09:53;;;;;;;5.63;3.67;;;;;;;;;;4994251;28;20171;-69
2023/12/27 13:12:18;;;;;;;6.50;4.67;;;;;;;;;;4988534;28;20226;-69
2023/12/27 13:14:43;;;;;;;8.50;4.30;;;;;;;;;;4986728;28;20645;-69
2023/12/27 13:17:08;;;;;;;5.47;4.03;;;;;;;;;;4989176;28;20685;-69
2023/12/27 13:19:33;;;;;;;10.27;3.93;;;;;;;;;;4987401;28;20172;-69
2023/12/27 13:21:59;;;;;;;11.10;4.10;;;;;;;;;;4992424;28;20179;-69
2023/12/27 13:24:24;;;;;;;7.53;4.43;;;;;;;;;;4993325;28;20183;-68
2023/12/27 13:26:49;;;;;;;6.60;4.00;;;;;;;;;;4994325;28;20254;-69
2023/12/27 13:29:15;;;;;;;10.50;4.57;;;;;;;;;;4992703;28;20176;-69
2023/12/27 13:31:40;;;;;;;8.77;4.47;;;;;;;;;;4993277;28;20281;-69
2023/12/27 13:34:06;;;;;;;7.65;4.47;;;;;;;;;;4986640;28;20213;-68
2023/12/27 13:36:31;;;;;;;5.63;3.70;;;;;;;;;;4984831;28;20275;-68
2023/12/27 13:38:56;;;;;;;7.57;3.90;;;;;;;;;;4990060;28;20696;-69
2023/12/27 13:41:21;;;;;;;5.77;4.07;;;;;;;;;;4989411;28;20187;-69
2023/12/27 13:43:47;;;;;;;6.07;3.77;;;;;;;;;;4994162;28;20722;-69
2023/12/27 13:46:12;;;;;;;6.77;3.60;;;;;;;;;;4989545;28;20186;-69
2023/12/27 13:48:37;;;;;;;5.83;4.40;;;;;;;;;;4993080;28;20579;-68
2023/12/27 13:51:03;;;;;;;14.63;4.93;;;;;;;;;;4987783;28;20200;-68
2023/12/27 13:53:28;;;;;;;7.97;4.53;;;;;;;;;;4988858;28;20223;-68
2023/12/27 13:55:53;;;;;;;4.97;3.83;;;;;;;;;;4992605;28;20318;-68
2023/12/27 13:58:18;;;;;;;8.97;4.30;;;;;;;;;;4993105;28;20262;-69
2023/12/27 14:00:44;;;;;;;8.60;3.93;;;;;;;;;;5002598;28;20195;-68
2023/12/27 14:03:09;;;;;;;9.43;3.87;;;;;;;;;;4992862;28;20196;-68
2023/12/27 14:05:37;;;;;;;6.43;5.00;;;;;;;;;;4996917;28;20560;-69
2023/12/27 14:08:02;;;;;;;12.03;3.63;;;;;;;;;;4980939;28;20188;-69
2023/12/27 14:10:28;;;;;;;6.63;3.67;;;;;;;;;;4993170;28;20176;-68
2023/12/27 14:12:55;;;;;;;6.57;4.07;;;;;;;;;;4996526;28;20719;-69
2023/12/27 14:15:20;;;;;;;7.13;4.70;;;;;;;;;;4991576;28;20651;-69
2023/12/27 14:17:46;;;;;;;5.97;3.80;;;;;;;;;;4990628;28;20253;-69
2023/12/27 14:20:12;;;;;;;6.93;4.40;;;;;;;;;;4992534;28;20270;-68